Terminal Aerodrome Forecast
Issued by NWS

Home | Current Version | Previous Version | Text Only | Print | Product List | Glossary On
Versions: 1 2 3 4 5 6 7 8 9 10 11 12 13 14 15 16
000
FTAK31 PAFA 210525
TAFAFA
TAF
PAFA 210525Z 2106/2212 34005KT P6SM -SHRA SCT030 BKN060 BKN090
     FM212000 07004KT P6SM VCSH SCT030 BKN050 BKN100
     FM220200 36004KT P6SM SCT050 SCT100=

USA.gov is the U.S. government's official web portal to all federal, state and local government web resources and services.